Time;durP1;ratioP1;P1;durP2;ratioP2;P2;SDS_P1;SDS_P2;PMS_P1;PMS_P2;Temp;Humidity;BMP_temperature;BMP_pressure;BME280_temperature;BME280_humidity;BME280_pressure;Samples;Min_cycle;Max_cycle;Signal;HPM_P1;HPM_P2
2022/07/13 00:02:13;;;;;;;;;7.75;6.25;;;;;26.60;34.54;101878.78;6156854;23;45314;-91
2022/07/13 00:04:39;;;;;;;;;10.50;9.00;;;;;26.56;33.89;101881.75;6156163;23;50942;-91
2022/07/13 00:07:04;;;;;;;;;12.50;10.00;;;;;26.53;34.57;101884.69;6131483;23;64393;-92
2022/07/13 00:09:29;;;;;;;;;11.00;7.50;;;;;26.48;34.43;101879.69;6156414;23;52454;-91
2022/07/13 00:11:55;;;;;;;;;8.50;8.00;;;;;26.44;34.78;101879.09;6132642;23;45758;-91
2022/07/13 00:14:20;;;;;;;;;7.00;7.00;;;;;26.42;35.11;101878.34;6155480;23;64657;-91
2022/07/13 00:16:45;;;;;;;;;6.50;6.00;;;;;26.38;34.64;101878.75;6157368;23;45333;-90
2022/07/13 00:19:11;;;;;;;;;6.75;6.75;;;;;26.33;34.46;101870.22;6152829;23;46337;-90
2022/07/13 00:21:36;;;;;;;;;14.25;9.00;;;;;26.30;35.23;101878.47;6128528;23;65313;-92
2022/07/13 00:24:02;;;;;;;;;12.00;9.00;;;;;26.24;35.79;101878.00;6154770;23;45491;-90
2022/07/13 00:26:27;;;;;;;;;7.50;5.75;;;;;26.20;34.90;101876.50;6130741;23;45290;-91
2022/07/13 00:28:53;;;;;;;;;8.50;4.50;;;;;26.17;35.70;101875.91;6129171;23;48192;-89
2022/07/13 00:31:18;;;;;;;;;6.75;4.75;;;;;26.16;34.83;101871.53;6154334;23;45571;-89
2022/07/13 00:33:43;;;;;;;;;6.75;6.00;;;;;26.11;34.00;101876.38;6179663;23;56981;-89
2022/07/13 00:36:09;;;;;;;;;6.75;4.75;;;;;26.05;34.76;101872.38;6180184;23;57739;-90
2022/07/13 00:38:35;;;;;;;;;4.75;4.50;;;;;26.00;35.45;101870.06;6155325;23;45796;-91
2022/07/13 00:41:00;;;;;;;;;7.50;5.00;;;;;25.96;34.93;101859.72;6130217;23;45830;-90
2022/07/13 00:43:26;;;;;;;;;9.50;6.50;;;;;25.92;35.24;101855.56;6181921;23;45385;-91
2022/07/13 00:45:51;;;;;;;;;4.00;4.00;;;;;25.89;35.27;101852.19;6154292;23;58003;-90
2022/07/13 00:48:16;;;;;;;;;3.00;3.00;;;;;25.86;35.39;101859.56;6129488;23;47169;-91
2022/07/13 00:50:42;;;;;;;;;6.50;6.00;;;;;25.81;35.53;101861.72;6154838;23;53478;-91
2022/07/13 00:53:07;;;;;;;;;6.25;5.00;;;;;25.77;35.48;101862.94;6155638;23;45262;-91
2022/07/13 00:55:33;;;;;;;;;7.75;5.00;;;;;25.72;35.58;101855.25;6181745;23;45981;-91
2022/07/13 00:58:01;;;;;;;;;4.00;3.00;;;;;25.67;36.17;101866.28;6155719;23;53041;-91
2022/07/13 01:00:26;;;;;;;;;5.00;5.00;;;;;25.64;35.63;101858.50;6156411;23;45685;-90
2022/07/13 01:02:52;;;;;;;;;6.00;6.00;;;;;25.62;34.95;101855.13;6129854;23;68629;-90
2022/07/13 01:05:18;;;;;;;;;5.00;3.50;;;;;25.57;35.64;101854.59;6132119;23;45455;-90
2022/07/13 01:07:44;;;;;;;;;6.75;5.50;;;;;25.55;36.11;101845.88;6138422;23;68219;-91
2022/07/13 01:10:11;;;;;;;;;5.00;4.00;;;;;25.53;36.75;101847.81;6180034;23;45078;-90
2022/07/13 01:12:37;;;;;;;;;6.50;6.25;;;;;25.51;37.25;101849.75;6156391;23;45212;-92
2022/07/13 01:15:06;;;;;;;;;6.25;5.25;;;;;25.48;37.25;101847.28;6181417;23;44766;-92
2022/07/13 01:17:32;;;;;;;;;5.75;5.75;;;;;25.47;37.08;101849.13;6180107;23;46910;-92
2022/07/13 01:19:58;;;;;;;;;6.75;6.75;;;;;25.44;36.78;101854.66;6155323;23;45469;-91
2022/07/13 01:22:33;;;;;;;;;6.50;6.00;;;;;25.39;37.32;101848.84;6179498;23;46721;-90
2022/07/13 01:24:59;;;;;;;;;5.00;5.00;;;;;25.37;36.68;101861.44;6167911;23;45403;-91
2022/07/13 01:27:24;;;;;;;;;6.50;4.50;;;;;25.39;37.02;101855.97;6133841;23;47147;-92
2022/07/13 01:29:50;;;;;;;;;7.00;5.00;;;;;25.35;37.28;101847.34;6160831;23;45337;-92
2022/07/13 01:32:15;;;;;;;;;6.25;6.25;;;;;25.33;37.73;101851.09;6162804;23;45307;-92
2022/07/13 01:34:41;;;;;;;;;7.00;5.25;;;;;25.30;36.86;101846.88;6163395;23;54819;-92
2022/07/13 01:37:06;;;;;;;;;6.00;5.25;;;;;25.27;37.36;101852.41;6139081;23;47206;-92
2022/07/13 01:39:32;;;;;;;;;7.00;6.00;;;;;25.24;37.49;101849.97;6135389;23;64246;-92
2022/07/13 01:41:57;;;;;;;;;9.00;5.50;;;;;25.22;36.82;101847.41;6135453;23;65799;-91
2022/07/13 01:44:22;;;;;;;;;5.50;5.50;;;;;25.23;37.73;101837.59;6157058;23;56205;-91
2022/07/13 01:46:48;;;;;;;;;5.75;5.00;;;;;25.22;37.38;101838.53;6155913;23;46968;-91
2022/07/13 01:49:13;;;;;;;;;8.00;5.00;;;;;25.25;37.69;101838.34;6131894;23;62568;-92
2022/07/13 01:51:39;;;;;;;;;6.50;5.00;;;;;25.23;38.83;101838.47;6161779;23;45246;-91
2022/07/13 01:54:04;;;;;;;;;10.00;8.00;;;;;25.23;38.71;101842.91;6161546;23;45259;-93
2022/07/13 01:56:29;;;;;;;;;5.00;5.00;;;;;25.24;38.69;101834.84;6162413;23;47292;-91
2022/07/13 01:58:55;;;;;;;;;6.00;3.00;;;;;25.29;37.96;101838.00;6137110;23;46870;-91
2022/07/13 02:01:20;;;;;;;;;6.00;6.00;;;;;25.35;38.21;101839.34;6160654;23;56201;-91
2022/07/13 02:03:46;;;;;;;;;6.00;5.25;;;;;25.36;37.59;101832.22;6159658;23;48431;-93
2022/07/13 02:06:11;;;;;;;;;6.25;6.00;;;;;25.37;39.01;101829.47;6181544;23;59621;-92
2022/07/13 02:08:37;;;;;;;;;7.25;6.00;;;;;25.41;38.95;101830.94;6131584;23;45454;-92
2022/07/13 02:11:03;;;;;;;;;5.50;4.75;;;;;25.46;37.88;101826.09;6131807;23;45358;-92
2022/07/13 02:13:28;;;;;;;;;6.25;6.00;;;;;25.48;38.62;101820.63;6132266;23;45347;-91
2022/07/13 02:15:54;;;;;;;;;9.50;7.00;;;;;25.50;38.61;101819.56;6183298;23;46943;-93
2022/07/13 02:18:19;;;;;;;;;6.50;6.50;;;;;25.52;38.63;101824.78;6132392;23;47532;-91
2022/07/13 02:20:44;;;;;;;;;6.00;6.00;;;;;25.56;39.22;101818.25;6184388;23;45248;-92
2022/07/13 02:23:10;;;;;;;;;6.75;5.00;;;;;25.58;38.67;101829.66;6132586;23;51077;-92
2022/07/13 02:25:37;;;;;;;;;7.00;6.00;;;;;25.59;39.19;101814.50;6183644;23;62965;-93
2022/07/13 02:28:03;;;;;;;;;9.50;7.00;;;;;25.60;38.98;101822.38;6157902;23;45270;-90
2022/07/13 02:30:28;;;;;;;;;6.75;5.00;;;;;25.59;38.69;101812.69;6157442;23;45314;-90
2022/07/13 02:32:54;;;;;;;;;6.50;6.25;;;;;25.57;38.81;101819.94;6157542;23;45301;-90
2022/07/13 02:35:19;;;;;;;;;7.25;5.00;;;;;25.57;38.26;101809.28;6156767;23;66495;-90
2022/07/13 02:37:44;;;;;;;;;5.50;5.00;;;;;25.56;39.40;101809.44;6131924;23;59322;-90
2022/07/13 02:40:11;;;;;;;;;9.50;6.50;;;;;25.57;39.65;101808.44;6131610;23;57632;-91
2022/07/13 02:42:36;;;;;;;;;7.50;5.25;;;;;25.56;39.42;101812.94;6157302;23;45237;-90
2022/07/13 02:45:02;;;;;;;;;5.50;4.50;;;;;25.53;39.23;101802.50;6132239;23;46953;-90
2022/07/13 02:47:28;;;;;;;;;6.00;5.00;;;;;25.53;38.66;101805.16;6156728;23;45342;-91
2022/07/13 02:49:53;;;;;;;;;7.75;6.50;;;;;25.52;39.55;101808.81;6132417;23;45340;-90
2022/07/13 02:52:18;;;;;;;;;7.75;6.75;;;;;25.52;39.39;101807.94;6157267;23;45325;-90
2022/07/13 02:54:44;;;;;;;;;7.25;6.00;;;;;25.50;39.96;101816.91;6127170;23;48181;-91
2022/07/13 02:57:09;;;;;;;;;5.00;5.00;;;;;25.54;40.29;101806.88;6127293;23;56911;-90
2022/07/13 02:59:36;;;;;;;;;8.25;5.50;;;;;25.56;40.34;101815.59;6151415;23;45298;-90
2022/07/13 03:02:02;;;;;;;;;6.50;5.00;;;;;25.55;39.69;101816.53;6126595;23;45423;-89
2022/07/13 03:04:28;;;;;;;;;5.75;5.75;;;;;25.54;39.65;101812.19;6153022;23;45395;-89
2022/07/13 03:06:53;;;;;;;;;5.00;5.00;;;;;25.53;40.02;101807.81;6153017;23;45162;-91
2022/07/13 03:09:18;;;;;;;;;6.00;6.00;;;;;25.54;39.70;101812.19;6125748;23;64420;-90
2022/07/13 03:11:44;;;;;;;;;7.75;5.00;;;;;25.52;39.31;101808.81;6151819;23;57707;-89
2022/07/13 03:14:09;;;;;;;;;7.25;5.75;;;;;25.49;39.61;101814.34;6100654;23;68820;-90
2022/07/13 03:16:35;;;;;;;;;5.50;5.50;;;;;25.45;39.86;101802.22;6126883;23;45591;-91
2022/07/13 03:19:00;;;;;;;;;9.00;5.25;;;;;25.42;39.16;101805.13;6126706;23;54272;-90
2022/07/13 03:21:27;;;;;;;;;8.00;6.00;;;;;25.40;39.92;101815.03;6151857;23;45459;-90
2022/07/13 03:23:53;;;;;;;;;6.25;5.75;;;;;25.39;40.47;101805.34;6151356;23;46285;-90
2022/07/13 03:26:18;;;;;;;;;8.50;5.25;;;;;25.37;40.35;101807.25;6125839;23;58219;-90
2022/07/13 03:28:43;;;;;;;;;7.25;6.00;;;;;25.35;40.54;101804.72;6125847;23;62875;-90
2022/07/13 03:31:09;;;;;;;;;6.00;6.00;;;;;25.34;40.14;101804.84;6126937;23;45399;-90
2022/07/13 03:33:34;;;;;;;;;9.25;6.00;;;;;25.32;41.12;101799.63;6126479;23;55136;-90
2022/07/13 03:35:59;;;;;;;;;5.50;5.50;;;;;25.32;40.01;101804.13;6101815;23;50892;-90
2022/07/13 03:38:25;;;;;;;;;5.00;5.00;;;;;25.30;39.75;101802.41;6125783;23;64986;-91
2022/07/13 03:40:50;;;;;;;;;6.50;6.00;;;;;25.30;40.96;101807.72;6151550;23;50092;-90
2022/07/13 03:43:15;;;;;;;;;8.25;6.75;;;;;25.31;40.15;101808.56;6125796;23;58839;-90
2022/07/13 03:45:42;;;;;;;;;6.00;6.00;;;;;25.30;40.97;101805.06;6125650;23;75523;-92
2022/07/13 03:48:07;;;;;;;;;8.00;6.00;;;;;25.31;40.87;101811.25;6151877;23;45247;-91
2022/07/13 03:50:32;;;;;;;;;9.00;5.75;;;;;25.34;41.32;101818.19;6152059;23;45348;-92
2022/07/13 03:52:58;;;;;;;;;4.75;4.75;;;;;25.36;41.17;101814.41;6126687;23;58064;-91
2022/07/13 03:55:23;;;;;;;;;7.00;7.00;;;;;25.38;41.61;101824.97;6131667;23;45562;-91
2022/07/13 03:57:48;;;;;;;;;9.25;9.00;;;;;25.35;40.42;101818.03;6131937;23;49345;-92
2022/07/13 04:00:14;;;;;;;;;8.00;8.00;;;;;25.32;41.81;101818.28;6182957;23;50056;-92
2022/07/13 04:02:40;;;;;;;;;8.75;7.00;;;;;25.30;41.19;101820.22;6131789;23;47019;-91
2022/07/13 04:05:06;;;;;;;;;7.00;6.75;;;;;25.29;41.41;101824.69;6131839;23;45602;-91
2022/07/13 04:07:31;;;;;;;;;7.00;7.00;;;;;25.27;41.39;101817.78;6131713;23;45775;-90
2022/07/13 04:09:57;;;;;;;;;6.50;5.00;;;;;25.26;40.92;101819.59;6131869;23;52577;-93
2022/07/13 04:12:22;;;;;;;;;7.00;5.00;;;;;25.25;40.58;101814.38;6132199;23;47251;-92
2022/07/13 04:14:51;;;;;;;;;5.00;5.00;;;;;25.27;41.34;101820.44;6131656;23;56723;-91
2022/07/13 04:17:16;;;;;;;;;8.25;5.75;;;;;25.27;40.93;101815.94;6137580;23;45349;-90
2022/07/13 04:19:42;;;;;;;;;8.50;7.00;;;;;25.26;41.97;101819.59;6136508;23;45343;-91
2022/07/13 04:22:07;;;;;;;;;8.00;7.00;;;;;25.26;42.25;101818.75;6137263;23;47074;-91
2022/07/13 04:24:32;;;;;;;;;8.50;7.00;;;;;25.26;41.68;101814.25;6188133;23;57025;-90
2022/07/13 04:26:58;;;;;;;;;7.50;5.25;;;;;25.25;42.47;101811.72;6161172;23;45317;-92
2022/07/13 04:29:23;;;;;;;;;7.25;6.00;;;;;25.22;42.61;101804.78;6160532;23;45194;-92
2022/07/13 04:31:48;;;;;;;;;11.75;10.00;;;;;25.23;42.61;101813.59;6156239;23;69284;-92
2022/07/13 04:34:14;;;;;;;;;8.75;7.00;;;;;25.23;41.98;101806.50;6132114;23;45205;-92
2022/07/13 04:36:43;;;;;;;;;8.00;5.25;;;;;25.29;41.53;101805.19;6131909;23;48565;-92
2022/07/13 04:39:08;;;;;;;;;8.50;8.25;;;;;25.36;42.33;101810.91;6131678;23;45321;-92
2022/07/13 04:41:34;;;;;;;;;6.75;6.00;;;;;25.37;42.47;101802.81;6183063;23;45505;-91
2022/07/13 04:43:59;;;;;;;;;10.25;7.00;;;;;25.39;42.74;101808.00;6155887;23;59465;-91
2022/07/13 04:46:24;;;;;;;;;7.75;7.50;;;;;25.38;42.88;101808.97;6131106;23;59407;-91
2022/07/13 04:48:50;;;;;;;;;10.25;8.50;;;;;25.37;43.08;101805.47;6183130;23;45254;-90
2022/07/13 04:51:15;;;;;;;;;9.00;7.75;;;;;25.38;42.51;101804.50;6156255;23;51117;-90
2022/07/13 04:53:40;;;;;;;;;10.25;9.25;;;;;25.38;42.75;101807.16;6130718;23;45372;-90
2022/07/13 04:56:07;;;;;;;;;9.00;8.50;;;;;25.39;42.65;101808.88;6131475;23;64017;-90
2022/07/13 04:58:32;;;;;;;;;9.25;9.00;;;;;25.44;43.25;101808.50;6184520;23;45150;-89
2022/07/13 05:01:00;;;;;;;;;9.00;7.50;;;;;25.51;43.89;101804.41;6132201;23;67064;-93
2022/07/13 05:03:26;;;;;;;;;8.50;7.00;;;;;25.55;42.74;101805.03;6158605;23;45350;-88
2022/07/13 05:05:51;;;;;;;;;10.00;8.00;;;;;25.57;43.61;101801.28;6131794;23;45295;-93
2022/07/13 05:08:16;;;;;;;;;10.00;7.50;;;;;25.58;42.78;101813.66;6130972;23;45560;-88
2022/07/13 05:10:42;;;;;;;;;9.00;9.00;;;;;25.60;43.21;101802.88;6155138;23;72538;-90
2022/07/13 05:13:07;;;;;;;;;7.25;6.50;;;;;25.63;43.69;101802.63;6155056;23;62855;-89
2022/07/13 05:15:32;;;;;;;;;10.00;8.75;;;;;25.69;43.10;101808.34;6130053;23;56240;-91
2022/07/13 05:17:58;;;;;;;;;16.50;9.75;;;;;25.75;43.49;101803.53;6154835;23;52417;-89
2022/07/13 05:20:23;;;;;;;;;10.75;9.50;;;;;25.81;43.26;101800.38;6129031;23;64485;-94
2022/07/13 05:22:48;;;;;;;;;10.50;9.50;;;;;25.85;43.04;101802.72;6155989;23;45333;-91
2022/07/13 05:25:14;;;;;;;;;10.00;10.00;;;;;25.92;43.90;101799.56;6156172;23;45264;-91
2022/07/13 05:27:39;;;;;;;;;9.75;9.25;;;;;25.97;42.94;101806.28;6130568;23;59652;-90
2022/07/13 05:30:05;;;;;;;;;14.25;10.75;;;;;26.01;41.45;101806.88;6155925;23;46970;-91
2022/07/13 05:32:30;;;;;;;;;9.75;7.25;;;;;26.06;41.33;101807.38;6182545;23;45431;-92
2022/07/13 05:34:56;;;;;;;;;8.25;8.00;;;;;26.11;41.61;101812.34;6183090;23;45263;-92
2022/07/13 05:37:21;;;;;;;;;9.25;7.00;;;;;26.16;39.76;101821.69;6131387;23;45317;-93
2022/07/13 05:39:47;;;;;;;;;8.00;5.75;;;;;26.19;39.71;101817.94;6156178;23;48187;-91
2022/07/13 05:42:13;;;;;;;;;6.50;5.00;;;;;26.22;40.69;101821.19;6131916;23;45226;-94
2022/07/13 05:44:39;;;;;;;;;3.75;2.00;;;;;26.26;39.92;101819.13;6156368;23;45289;-93
2022/07/13 05:47:04;;;;;;;;;6.00;4.00;;;;;26.33;37.28;101832.88;6155806;23;45440;-90
2022/07/13 05:49:30;;;;;;;;;7.00;5.00;;;;;26.39;37.68;101827.03;6130783;23;46969;-95
2022/07/13 05:51:55;;;;;;;;;7.50;5.50;;;;;26.44;39.36;101820.34;6154910;23;45237;-89
2022/07/13 05:54:20;;;;;;;;;5.25;4.50;;;;;26.53;39.87;101826.78;6182185;23;45627;-94
2022/07/13 05:56:46;;;;;;;;;5.00;4.00;;;;;26.61;40.05;101827.06;6156083;23;50022;-93
2022/07/13 05:59:11;;;;;;;;;5.50;5.50;;;;;26.69;39.58;101829.13;6156134;23;69864;-95
2022/07/13 06:01:36;;;;;;;;;6.25;5.00;;;;;26.77;40.20;101836.53;6131802;23;46479;-93
2022/07/13 06:04:02;;;;;;;;;8.50;4.50;;;;;26.82;40.61;101835.19;6156494;23;45318;-93
2022/07/13 06:06:27;;;;;;;;;5.00;5.00;;;;;26.88;39.75;101833.84;6130621;23;50277;-95
2022/07/13 06:08:53;;;;;;;;;7.00;5.25;;;;;26.95;39.65;101845.72;6156445;23;58255;-94
2022/07/13 06:11:18;;;;;;;;;7.50;5.00;;;;;27.00;40.91;101840.81;6156682;23;45462;-94
2022/07/13 06:13:44;;;;;;;;;6.00;4.00;;;;;27.07;40.16;101840.34;6131950;23;47031;-93
2022/07/13 06:16:09;;;;;;;;;7.25;7.25;;;;;27.11;36.90;101834.63;6155682;23;51887;-92
2022/07/13 06:18:35;;;;;;;;;6.00;3.75;;;;;27.16;36.39;101834.25;6132653;23;47021;-91
2022/07/13 06:21:00;;;;;;;;;5.50;4.50;;;;;27.22;35.63;101841.75;6156997;23;45285;-89
2022/07/13 06:23:26;;;;;;;;;5.50;5.50;;;;;27.28;35.06;101835.09;6159918;23;45570;-88
2022/07/13 06:25:54;;;;;;;;;5.00;5.00;;;;;27.33;34.28;101833.72;6165850;23;51942;-88
2022/07/13 06:28:19;;;;;;;;;7.00;5.75;;;;;27.36;33.79;101833.47;6157273;23;45542;-89
2022/07/13 06:30:45;;;;;;;;;4.75;4.75;;;;;27.41;33.08;101835.75;6181714;23;45480;-90
2022/07/13 06:33:10;;;;;;;;;7.50;3.25;;;;;27.45;32.55;101839.91;6155759;23;45239;-90
2022/07/13 06:35:36;;;;;;;;;8.00;4.75;;;;;27.49;32.14;101838.66;6130211;23;45247;-90
2022/07/13 06:38:01;;;;;;;;;7.00;4.75;;;;;27.53;31.73;101832.06;6154983;23;46139;-89
2022/07/13 06:40:27;;;;;;;;;4.00;4.00;;;;;27.61;33.35;101831.41;6130087;23;45556;-89
2022/07/13 06:42:52;;;;;;;;;4.25;4.00;;;;;27.67;31.64;101824.69;6158223;23;45419;-88
2022/07/13 06:45:18;;;;;;;;;7.00;5.00;;;;;27.72;31.47;101831.34;6133987;23;45497;-91
2022/07/13 06:47:43;;;;;;;;;6.00;4.75;;;;;27.76;32.31;101838.13;6160557;23;46981;-89
2022/07/13 06:50:10;;;;;;;;;7.50;5.75;;;;;27.81;32.36;101837.75;6158294;23;45370;-89
2022/07/13 06:52:37;;;;;;;;;7.25;6.00;;;;;27.84;32.36;101826.81;6134909;23;45378;-88
2022/07/13 06:55:03;;;;;;;;;6.50;5.75;;;;;27.87;32.17;101828.38;6185356;23;45366;-89
2022/07/13 06:57:29;;;;;;;;;7.25;7.00;;;;;27.92;34.78;101835.03;6155511;23;48253;-89
2022/07/13 06:59:54;;;;;;;;;8.50;6.50;;;;;27.93;32.29;101839.41;6155976;23;50649;-88
2022/07/13 07:02:20;;;;;;;;;9.75;8.00;;;;;27.91;32.53;101837.84;6156462;23;45205;-89
2022/07/13 07:04:45;;;;;;;;;11.50;8.00;;;;;27.91;33.16;101845.88;6156388;23;45376;-88
2022/07/13 07:07:11;;;;;;;;;11.75;10.75;;;;;27.94;33.22;101843.78;6155641;23;51132;-89
2022/07/13 07:09:36;;;;;;;;;10.00;8.00;;;;;27.98;32.46;101847.06;6156504;23;45166;-89
2022/07/13 07:12:01;;;;;;;;;8.50;5.25;;;;;27.98;31.70;101845.22;6156581;23;45686;-89
2022/07/13 07:14:33;;;;;;;;;6.75;5.00;;;;;28.05;32.57;101839.34;6156360;23;45343;-89
2022/07/13 07:16:59;;;;;;;;;5.50;5.50;;;;;28.14;32.05;101843.91;6182429;23;46374;-89
2022/07/13 07:19:24;;;;;;;;;9.50;5.00;;;;;28.19;31.44;101839.88;6155280;23;45701;-87
2022/07/13 07:21:49;;;;;;;;;6.25;5.25;;;;;28.20;31.07;101846.06;6182941;23;52857;-87
2022/07/13 07:24:15;;;;;;;;;4.75;4.75;;;;;28.21;31.37;101847.72;6131335;23;45229;-85
2022/07/13 07:26:40;;;;;;;;;4.25;4.25;;;;;28.19;30.70;101849.69;6184438;23;46436;-90
2022/07/13 07:29:05;;;;;;;;;8.00;4.00;;;;;28.14;31.74;101854.63;6131368;23;65801;-94
2022/07/13 07:31:32;;;;;;;;;6.75;4.50;;;;;28.10;31.80;101845.13;6182861;23;49658;-90
2022/07/13 07:33:58;;;;;;;;;7.25;5.00;;;;;28.07;31.38;101848.09;6158889;23;45269;-92
2022/07/13 07:36:23;;;;;;;;;5.25;5.00;;;;;28.05;31.88;101842.88;6112117;23;47572;-87
2022/07/13 07:38:49;;;;;;;;;5.25;3.75;;;;;28.07;31.47;101845.41;6158055;23;45343;-91
2022/07/13 07:41:14;;;;;;;;;9.75;5.00;;;;;28.11;31.95;101850.38;6184437;23;45289;-93
2022/07/13 07:43:40;;;;;;;;;5.50;5.00;;;;;28.16;31.67;101849.97;6183494;23;54453;-93
2022/07/13 07:46:05;;;;;;;;;4.25;4.00;;;;;28.19;31.54;101855.03;6155654;23;61273;-92
2022/07/13 07:48:52;;;;;;;;;7.00;4.50;;;;;28.20;30.94;101851.41;6133766;23;45234;-91
2022/07/13 07:51:21;;;;;;;;;5.00;4.25;;;;;28.23;30.99;101848.47;6184614;23;45212;-92
2022/07/13 07:53:46;;;;;;;;;5.00;3.00;;;;;28.28;30.41;101848.06;6156855;23;55586;-91
2022/07/13 07:56:12;;;;;;;;;4.00;4.00;;;;;28.29;30.58;101842.56;6131594;23;46973;-91
2022/07/13 07:58:38;;;;;;;;;7.00;3.75;;;;;28.33;30.96;101841.31;6132120;23;45163;-92
2022/07/13 08:01:04;;;;;;;;;5.00;4.50;;;;;28.38;30.39;101843.63;6183390;23;45239;-92
2022/07/13 08:03:29;;;;;;;;;5.75;4.00;;;;;28.38;30.84;101840.94;6156466;23;45435;-92
2022/07/13 08:05:57;;;;;;;;;3.00;3.00;;;;;28.41;30.34;101843.31;6156605;23;45829;-92
2022/07/13 08:08:22;;;;;;;;;6.00;4.25;;;;;28.38;29.58;101838.25;6157106;23;45628;-91
2022/07/13 08:10:48;;;;;;;;;4.50;4.00;;;;;28.35;30.31;101846.53;6182847;23;45220;-91
2022/07/13 08:13:13;;;;;;;;;6.25;4.00;;;;;28.29;30.38;101841.75;6132362;23;45286;-93
2022/07/13 08:15:38;;;;;;;;;6.00;4.00;;;;;28.26;30.55;101836.63;6131266;23;67862;-92
2022/07/13 08:18:04;;;;;;;;;3.75;3.75;;;;;28.24;30.22;101842.13;6130439;23;65534;-92
2022/07/13 08:20:30;;;;;;;;;2.75;2.75;;;;;28.24;30.34;101844.81;6156211;23;58445;-92
2022/07/13 08:22:55;;;;;;;;;3.75;3.00;;;;;28.30;30.67;101843.41;6183771;23;45411;-91
2022/07/13 08:25:20;;;;;;;;;4.00;4.00;;;;;28.36;30.25;101841.06;6156664;23;46940;-93
2022/07/13 08:27:46;;;;;;;;;5.25;4.25;;;;;28.42;30.00;101837.00;6183545;23;45256;-93
2022/07/13 08:30:12;;;;;;;;;4.00;4.00;;;;;28.50;30.19;101844.34;6132649;23;45206;-92
2022/07/13 08:32:38;;;;;;;;;7.50;5.50;;;;;28.55;30.30;101828.75;6132154;23;45240;-92
2022/07/13 08:40:31;;;;;;;;;5.50;4.50;;;;;28.71;29.86;101831.75;6184799;23;45181;-92
2022/07/13 08:42:57;;;;;;;;;6.00;3.50;;;;;28.75;29.67;101832.31;6156668;23;60669;-92
2022/07/13 08:45:24;;;;;;;;;3.00;2.00;;;;;28.82;29.80;101824.59;6130014;23;76363;-90
2022/07/13 08:47:49;;;;;;;;;4.25;4.25;;;;;28.88;29.85;101827.59;6156226;23;45452;-89
2022/07/13 08:50:16;;;;;;;;;8.00;3.00;;;;;28.90;29.92;101822.06;6156563;23;45312;-91
2022/07/13 08:52:42;;;;;;;;;4.75;3.25;;;;;28.93;29.71;101817.28;6131640;23;45416;-91
2022/07/13 08:55:08;;;;;;;;;5.50;3.50;;;;;28.99;29.49;101810.50;6130757;23;47582;-91
2022/07/13 08:57:35;;;;;;;;;2.25;2.25;;;;;29.07;29.14;101821.41;6156829;23;45607;-92
2022/07/13 09:00:04;;;;;;;;;3.50;2.00;;;;;29.14;29.27;101819.03;6156135;23;45249;-91
2022/07/13 09:02:29;;;;;;;;;5.00;4.00;;;;;29.21;28.96;101808.59;6156909;23;45474;-91
2022/07/13 09:04:55;;;;;;;;;3.00;3.00;;;;;29.28;28.88;101815.94;6180423;23;56022;-89
2022/07/13 09:07:20;;;;;;;;;2.00;2.00;;;;;29.37;29.26;101810.72;6156690;23;63771;-91
2022/07/13 09:09:46;;;;;;;;;4.50;2.00;;;;;29.46;28.35;101817.94;6160951;23;68797;-91
2022/07/13 09:12:19;;;;;;;;;6.00;2.75;;;;;29.54;28.16;101807.31;6187795;23;45328;-91
2022/07/13 09:14:51;;;;;;;;;7.50;3.75;;;;;29.65;28.32;101809.00;6162087;23;48162;-90
2022/07/13 09:17:30;;;;;;;;;2.50;2.50;;;;;29.78;27.99;101814.09;6162348;23;45637;-91
2022/07/13 09:19:57;;;;;;;;;3.75;3.75;;;;;29.87;27.80;101815.91;6161721;23;45238;-91
2022/07/13 09:22:23;;;;;;;;;4.00;2.75;;;;;29.98;27.89;101809.50;6157771;23;45226;-90
2022/07/13 09:24:50;;;;;;;;;4.25;2.50;;;;;30.08;27.42;101811.16;6131137;23;56157;-90
2022/07/13 09:27:16;;;;;;;;;2.75;2.75;;;;;30.14;27.13;101808.91;6155434;23;45595;-88
2022/07/13 09:29:42;;;;;;;;;2.50;2.00;;;;;30.18;27.24;101808.47;6130535;23;45250;-90
2022/07/13 09:32:12;;;;;;;;;3.25;3.00;;;;;30.21;26.65;101810.84;6155944;23;45410;-92
2022/07/13 09:34:51;;;;;;;;;2.50;2.00;;;;;30.28;26.26;101809.25;6155774;23;45375;-90
2022/07/13 09:37:19;;;;;;;;;2.75;2.25;;;;;30.34;25.82;101801.66;6131195;23;45707;-89
2022/07/13 09:40:11;;;;;;;;;3.00;2.00;;;;;30.42;25.67;101809.81;6131698;23;45336;-90
2022/07/13 09:42:41;;;;;;;;;2.25;2.00;;;;;30.51;25.73;101797.31;6150961;23;44731;-91
2022/07/13 09:47:54;;;;;;;;;1.25;1.00;;;;;30.66;25.14;101810.13;6160361;23;45282;-91
2022/07/13 09:50:23;;;;;;;;;2.25;1.00;;;;;30.73;25.34;101809.50;6156533;23;45332;-92
2022/07/13 09:52:50;;;;;;;;;5.00;1.50;;;;;30.77;24.80;101800.97;6130772;23;45501;-90
2022/07/13 09:55:22;;;;;;;;;1.25;0.75;;;;;30.84;24.82;101803.91;6155665;23;47165;-92
2022/07/13 09:57:51;;;;;;;;;4.00;2.25;;;;;30.95;24.29;101811.78;6130607;23;45502;-90
2022/07/13 10:00:17;;;;;;;;;1.00;1.00;;;;;31.02;24.61;101799.44;6181779;23;45326;-91
2022/07/13 10:02:47;;;;;;;;;0.00;0.00;;;;;31.11;24.15;101807.56;6130915;23;45496;-91
2022/07/13 10:05:15;;;;;;;;;1.00;1.00;;;;;31.18;24.06;101800.56;6130987;23;47189;-92
2022/07/13 10:07:41;;;;;;;;;1.50;1.50;;;;;31.27;23.96;101800.47;6181632;23;45282;-91
2022/07/13 10:10:07;;;;;;;;;1.00;1.00;;;;;31.38;24.35;101799.41;6182005;23;45301;-91
2022/07/13 10:12:38;;;;;;;;;2.00;2.00;;;;;31.51;24.41;101807.09;6155661;23;45406;-91
2022/07/13 10:15:05;;;;;;;;;1.00;1.00;;;;;31.58;24.30;101799.25;6182296;23;45424;-91
2022/07/13 10:17:30;;;;;;;;;2.25;2.00;;;;;31.66;24.30;101802.00;6155821;23;45332;-90
2022/07/13 10:19:56;;;;;;;;;2.00;2.00;;;;;31.74;24.15;101802.06;6155743;23;45340;-88
2022/07/13 10:22:24;;;;;;;;;1.00;1.00;;;;;31.80;24.55;101801.44;6181915;23;45340;-89
2022/07/13 10:24:53;;;;;;;;;3.00;1.75;;;;;31.86;24.54;101802.63;6155866;23;46345;-92
2022/07/13 10:27:25;;;;;;;;;1.25;1.25;;;;;31.89;24.36;101791.56;6155049;23;45921;-90
2022/07/13 10:30:05;;;;;;;;;6.00;5.00;;;;;31.96;24.20;101791.75;6155617;23;45332;-91
2022/07/13 10:32:32;;;;;;;;;3.75;2.25;;;;;32.03;24.39;101784.75;6182068;23;45339;-90
2022/07/13 10:35:11;;;;;;;;;21.75;18.25;;;;;32.11;24.83;101786.63;6132485;23;48118;-90
2022/07/13 10:37:58;;;;;;;;;2.00;2.00;;;;;32.21;24.14;101790.91;6155718;23;45390;-90
2022/07/13 10:40:33;;;;;;;;;2.50;2.25;;;;;32.33;24.35;101785.22;6156302;23;45364;-90
2022/07/13 10:43:00;;;;;;;;;4.00;3.00;;;;;32.42;24.05;101779.69;6182701;23;45404;-89
2022/07/13 10:45:31;;;;;;;;;4.00;3.50;;;;;32.49;23.84;101792.53;6182380;23;46099;-90
2022/07/13 10:47:56;;;;;;;;;5.75;5.75;;;;;32.57;23.82;101792.56;6182286;23;45145;-88
2022/07/13 10:50:22;;;;;;;;;4.25;3.25;;;;;32.60;24.32;101793.09;6156375;23;45677;-88
2022/07/13 10:52:48;;;;;;;;;4.25;4.25;;;;;32.64;24.01;101790.91;6131655;23;45419;-89
2022/07/13 10:55:13;;;;;;;;;5.25;4.75;;;;;32.72;24.54;101790.09;6182270;23;46033;-89
2022/07/13 10:57:42;;;;;;;;;4.75;3.00;;;;;32.75;23.99;101785.22;6182161;23;45344;-88
2022/07/13 11:00:18;;;;;;;;;4.75;3.00;;;;;32.79;23.81;101785.72;6182535;23;45322;-87
2022/07/13 11:02:50;;;;;;;;;3.00;2.00;;;;;32.86;24.32;101794.84;6182860;23;45233;-86
2022/07/13 11:05:25;;;;;;;;;6.50;4.00;;;;;32.93;23.78;101789.63;6156080;23;46231;-87
2022/07/13 11:07:51;;;;;;;;;2.75;2.75;;;;;32.98;24.28;101781.88;6155166;23;45396;-88
2022/07/13 11:10:21;;;;;;;;;5.00;2.25;;;;;33.07;24.13;101782.75;6182533;23;45323;-87
2022/07/13 11:13:10;;;;;;;;;3.00;3.00;;;;;33.13;24.14;101776.69;6181913;23;45229;-86
2022/07/13 11:15:45;;;;;;;;;2.75;2.75;;;;;33.20;23.67;101777.72;6155096;23;46060;-86
2022/07/13 11:18:27;;;;;;;;;3.50;2.75;;;;;33.25;23.90;101775.34;6155375;23;45692;-87
2022/07/13 11:21:02;;;;;;;;;4.50;2.75;;;;;33.33;23.84;101778.03;6156321;23;45219;-87
2022/07/13 11:26:48;;;;;;;;;2.00;2.00;;;;;33.47;23.99;101771.13;6181880;23;45698;-86
2022/07/13 11:29:18;;;;;;;;;3.50;2.25;;;;;33.53;24.25;101770.44;6182381;23;45617;-86
2022/07/13 11:31:43;;;;;;;;;2.00;2.00;;;;;33.64;24.63;101773.81;6155602;23;45326;-86
2022/07/13 11:34:09;;;;;;;;;3.25;1.00;;;;;33.72;23.87;101769.25;6182010;23;45360;-86